sensor_id;sensor_type;location;lat;lon;timestamp;P1;durP1;ratioP1;P2;durP2;ratioP2
49440;SDS011;35317;51.978;6.296;2023-01-13T00:04:48;15.27;;;2.88;;
49440;SDS011;35317;51.978;6.296;2023-01-13T00:09:49;9.23;;;2.17;;
49440;SDS011;35317;51.978;6.296;2023-01-13T00:14:49;14.35;;;3.15;;
49440;SDS011;35317;51.978;6.296;2023-01-13T00:19:50;15.55;;;2.67;;
49440;SDS011;35317;51.978;6.296;2023-01-13T00:24:51;12.93;;;2.83;;
49440;SDS011;35317;51.978;6.296;2023-01-13T00:29:52;12.32;;;2.95;;
49440;SDS011;35317;51.978;6.296;2023-01-13T00:34:53;13.02;;;3.33;;
49440;SDS011;35317;51.978;6.296;2023-01-13T00:39:54;21.05;;;3.55;;
49440;SDS011;35317;51.978;6.296;2023-01-13T00:44:56;13.48;;;2.58;;
49440;SDS011;35317;51.978;6.296;2023-01-13T00:49:57;21.77;;;3.67;;
49440;SDS011;35317;51.978;6.296;2023-01-13T00:54:58;19.08;;;3.47;;
49440;SDS011;35317;51.978;6.296;2023-01-13T00:59:59;25.08;;;2.83;;
49440;SDS011;35317;51.978;6.296;2023-01-13T01:05:00;26.13;;;3.30;;
49440;SDS011;35317;51.978;6.296;2023-01-13T01:10:01;19.00;;;3.05;;
49440;SDS011;35317;51.978;6.296;2023-01-13T01:15:02;27.92;;;3.17;;
49440;SDS011;35317;51.978;6.296;2023-01-13T01:20:06;27.63;;;4.22;;
49440;SDS011;35317;51.978;6.296;2023-01-13T01:25:08;23.02;;;3.85;;
49440;SDS011;35317;51.978;6.296;2023-01-13T01:30:10;29.10;;;5.55;;
49440;SDS011;35317;51.978;6.296;2023-01-13T01:35:11;29.33;;;4.38;;
49440;SDS011;35317;51.978;6.296;2023-01-13T01:40:12;20.63;;;2.95;;
49440;SDS011;35317;51.978;6.296;2023-01-13T01:45:14;27.35;;;4.05;;
49440;SDS011;35317;51.978;6.296;2023-01-13T01:50:23;29.25;;;3.75;;
49440;SDS011;35317;51.978;6.296;2023-01-13T01:55:26;23.60;;;3.50;;
49440;SDS011;35317;51.978;6.296;2023-01-13T02:00:30;33.33;;;4.80;;
49440;SDS011;35317;51.978;6.296;2023-01-13T02:05:30;34.15;;;4.43;;
49440;SDS011;35317;51.978;6.296;2023-01-13T02:10:33;34.97;;;4.50;;
49440;SDS011;35317;51.978;6.296;2023-01-13T02:27:02;29.42;;;3.80;;
49440;SDS011;35317;51.978;6.296;2023-01-13T02:32:53;31.02;;;3.85;;
49440;SDS011;35317;51.978;6.296;2023-01-13T02:38:22;33.30;;;4.67;;
49440;SDS011;35317;51.978;6.296;2023-01-13T02:43:46;30.23;;;4.55;;
49440;SDS011;35317;51.978;6.296;2023-01-13T02:49:06;29.98;;;3.42;;
49440;SDS011;35317;51.978;6.296;2023-01-13T02:54:12;29.17;;;3.90;;
49440;SDS011;35317;51.978;6.296;2023-01-13T02:59:18;29.38;;;3.67;;
49440;SDS011;35317;51.978;6.296;2023-01-13T03:09:54;29.90;;;3.25;;
49440;SDS011;35317;51.978;6.296;2023-01-13T03:15:36;32.08;;;5.78;;
49440;SDS011;35317;51.978;6.296;2023-01-13T03:21:04;24.52;;;4.50;;
49440;SDS011;35317;51.978;6.296;2023-01-13T03:26:14;36.85;;;4.50;;
49440;SDS011;35317;51.978;6.296;2023-01-13T03:31:27;30.17;;;4.28;;
49440;SDS011;35317;51.978;6.296;2023-01-13T03:36:31;34.38;;;3.78;;
49440;SDS011;35317;51.978;6.296;2023-01-13T03:41:40;45.88;;;5.40;;
49440;SDS011;35317;51.978;6.296;2023-01-13T03:52:04;36.70;;;4.57;;
49440;SDS011;35317;51.978;6.296;2023-01-13T03:57:18;38.90;;;4.82;;
49440;SDS011;35317;51.978;6.296;2023-01-13T04:13:03;37.38;;;4.50;;
49440;SDS011;35317;51.978;6.296;2023-01-13T04:18:29;32.00;;;5.63;;
49440;SDS011;35317;51.978;6.296;2023-01-13T04:23:30;37.90;;;4.10;;
49440;SDS011;35317;51.978;6.296;2023-01-13T04:28:31;27.67;;;3.72;;
49440;SDS011;35317;51.978;6.296;2023-01-13T04:33:34;35.13;;;3.80;;
49440;SDS011;35317;51.978;6.296;2023-01-13T04:38:34;43.85;;;6.05;;
49440;SDS011;35317;51.978;6.296;2023-01-13T04:43:35;28.58;;;3.75;;
49440;SDS011;35317;51.978;6.296;2023-01-13T04:48:36;29.75;;;3.40;;
49440;SDS011;35317;51.978;6.296;2023-01-13T04:53:37;16.25;;;2.55;;
49440;SDS011;35317;51.978;6.296;2023-01-13T04:58:37;19.92;;;2.30;;
49440;SDS011;35317;51.978;6.296;2023-01-13T05:03:38;16.85;;;2.22;;
49440;SDS011;35317;51.978;6.296;2023-01-13T05:08:39;19.35;;;3.13;;
49440;SDS011;35317;51.978;6.296;2023-01-13T05:13:40;18.23;;;2.10;;
49440;SDS011;35317;51.978;6.296;2023-01-13T05:18:59;12.75;;;1.85;;
49440;SDS011;35317;51.978;6.296;2023-01-13T05:24:00;14.00;;;1.95;;
49440;SDS011;35317;51.978;6.296;2023-01-13T05:29:19;7.40;;;1.38;;
49440;SDS011;35317;51.978;6.296;2023-01-13T05:34:19;16.25;;;2.15;;
49440;SDS011;35317;51.978;6.296;2023-01-13T05:39:20;18.88;;;2.10;;
49440;SDS011;35317;51.978;6.296;2023-01-13T05:44:21;12.85;;;1.50;;
49440;SDS011;35317;51.978;6.296;2023-01-13T05:49:22;11.48;;;1.70;;
49440;SDS011;35317;51.978;6.296;2023-01-13T05:54:23;12.43;;;1.80;;
49440;SDS011;35317;51.978;6.296;2023-01-13T05:59:23;12.52;;;1.83;;
49440;SDS011;35317;51.978;6.296;2023-01-13T06:04:24;16.98;;;2.17;;
49440;SDS011;35317;51.978;6.296;2023-01-13T06:09:25;13.35;;;2.25;;
49440;SDS011;35317;51.978;6.296;2023-01-13T06:14:25;17.42;;;3.53;;
49440;SDS011;35317;51.978;6.296;2023-01-13T06:19:39;13.38;;;2.13;;
49440;SDS011;35317;51.978;6.296;2023-01-13T06:24:40;14.65;;;2.28;;
49440;SDS011;35317;51.978;6.296;2023-01-13T06:29:42;15.98;;;2.30;;
49440;SDS011;35317;51.978;6.296;2023-01-13T06:34:44;16.23;;;2.17;;
49440;SDS011;35317;51.978;6.296;2023-01-13T06:39:51;23.88;;;3.03;;
49440;SDS011;35317;51.978;6.296;2023-01-13T06:44:57;14.23;;;2.40;;
49440;SDS011;35317;51.978;6.296;2023-01-13T06:49:58;14.20;;;2.40;;
49440;SDS011;35317;51.978;6.296;2023-01-13T06:54:59;21.25;;;2.90;;
49440;SDS011;35317;51.978;6.296;2023-01-13T07:00:10;18.45;;;2.72;;
49440;SDS011;35317;51.978;6.296;2023-01-13T07:05:11;18.25;;;3.28;;
49440;SDS011;35317;51.978;6.296;2023-01-13T07:10:13;20.75;;;3.10;;
49440;SDS011;35317;51.978;6.296;2023-01-13T07:15:21;26.35;;;3.88;;
49440;SDS011;35317;51.978;6.296;2023-01-13T07:20:22;20.50;;;3.33;;
49440;SDS011;35317;51.978;6.296;2023-01-13T07:25:23;17.67;;;3.08;;
49440;SDS011;35317;51.978;6.296;2023-01-13T07:30:24;22.13;;;3.42;;
49440;SDS011;35317;51.978;6.296;2023-01-13T07:35:25;20.92;;;2.90;;
49440;SDS011;35317;51.978;6.296;2023-01-13T07:40:25;19.63;;;2.88;;
49440;SDS011;35317;51.978;6.296;2023-01-13T07:45:26;18.25;;;3.33;;
49440;SDS011;35317;51.978;6.296;2023-01-13T07:50:27;16.48;;;2.28;;
49440;SDS011;35317;51.978;6.296;2023-01-13T07:55:28;17.92;;;2.72;;
49440;SDS011;35317;51.978;6.296;2023-01-13T08:00:28;18.85;;;2.85;;
49440;SDS011;35317;51.978;6.296;2023-01-13T08:05:30;22.02;;;3.58;;
49440;SDS011;35317;51.978;6.296;2023-01-13T08:10:34;16.27;;;2.72;;
49440;SDS011;35317;51.978;6.296;2023-01-13T08:15:36;19.83;;;3.58;;
49440;SDS011;35317;51.978;6.296;2023-01-13T08:20:37;15.27;;;2.53;;
49440;SDS011;35317;51.978;6.296;2023-01-13T08:25:38;19.30;;;2.92;;
49440;SDS011;35317;51.978;6.296;2023-01-13T08:30:39;22.08;;;2.85;;
49440;SDS011;35317;51.978;6.296;2023-01-13T08:35:39;22.92;;;2.70;;
49440;SDS011;35317;51.978;6.296;2023-01-13T08:40:41;23.60;;;3.85;;
49440;SDS011;35317;51.978;6.296;2023-01-13T08:45:42;21.17;;;2.80;;
49440;SDS011;35317;51.978;6.296;2023-01-13T08:50:42;22.88;;;3.75;;
49440;SDS011;35317;51.978;6.296;2023-01-13T08:55:43;19.85;;;2.83;;
49440;SDS011;35317;51.978;6.296;2023-01-13T09:00:44;26.30;;;3.33;;
49440;SDS011;35317;51.978;6.296;2023-01-13T09:05:45;23.33;;;3.17;;
49440;SDS011;35317;51.978;6.296;2023-01-13T09:10:45;20.55;;;3.22;;
49440;SDS011;35317;51.978;6.296;2023-01-13T09:15:48;29.80;;;3.33;;
49440;SDS011;35317;51.978;6.296;2023-01-13T09:20:51;22.52;;;3.08;;
49440;SDS011;35317;51.978;6.296;2023-01-13T09:25:51;27.35;;;4.55;;
49440;SDS011;35317;51.978;6.296;2023-01-13T09:30:52;23.40;;;4.00;;
49440;SDS011;35317;51.978;6.296;2023-01-13T09:35:56;18.80;;;2.67;;
49440;SDS011;35317;51.978;6.296;2023-01-13T09:40:58;28.70;;;3.17;;
49440;SDS011;35317;51.978;6.296;2023-01-13T09:46:00;23.65;;;3.38;;
49440;SDS011;35317;51.978;6.296;2023-01-13T09:51:35;25.60;;;4.05;;
49440;SDS011;35317;51.978;6.296;2023-01-13T09:56:44;25.45;;;3.88;;
49440;SDS011;35317;51.978;6.296;2023-01-13T10:07:30;27.58;;;4.50;;
49440;SDS011;35317;51.978;6.296;2023-01-13T10:12:35;27.60;;;3.80;;
49440;SDS011;35317;51.978;6.296;2023-01-13T10:28:56;28.08;;;3.55;;
49440;SDS011;35317;51.978;6.296;2023-01-13T10:33:58;27.52;;;5.50;;
49440;SDS011;35317;51.978;6.296;2023-01-13T10:39:07;23.10;;;4.32;;
49440;SDS011;35317;51.978;6.296;2023-01-13T10:44:17;19.92;;;3.92;;
49440;SDS011;35317;51.978;6.296;2023-01-13T10:49:25;31.70;;;3.85;;
49440;SDS011;35317;51.978;6.296;2023-01-13T10:54:49;20.38;;;3.40;;
49440;SDS011;35317;51.978;6.296;2023-01-13T10:59:54;26.48;;;3.85;;
49440;SDS011;35317;51.978;6.296;2023-01-13T11:10:16;28.60;;;3.97;;
49440;SDS011;35317;51.978;6.296;2023-01-13T11:21:22;25.48;;;3.60;;
49440;SDS011;35317;51.978;6.296;2023-01-13T11:26:31;16.35;;;3.03;;
49440;SDS011;35317;51.978;6.296;2023-01-13T11:31:51;23.70;;;3.45;;
49440;SDS011;35317;51.978;6.296;2023-01-13T11:36:59;26.40;;;3.78;;
49440;SDS011;35317;51.978;6.296;2023-01-13T11:42:10;22.13;;;3.45;;
49440;SDS011;35317;51.978;6.296;2023-01-13T11:47:20;20.45;;;3.92;;
49440;SDS011;35317;51.978;6.296;2023-01-13T11:58:22;21.67;;;3.97;;
49440;SDS011;35317;51.978;6.296;2023-01-13T12:14:24;21.70;;;2.85;;
49440;SDS011;35317;51.978;6.296;2023-01-13T12:19:38;23.50;;;4.13;;
49440;SDS011;35317;51.978;6.296;2023-01-13T12:25:03;23.73;;;4.53;;
49440;SDS011;35317;51.978;6.296;2023-01-13T12:36:27;25.58;;;3.30;;
49440;SDS011;35317;51.978;6.296;2023-01-13T12:56:39;17.70;;;2.83;;
49440;SDS011;35317;51.978;6.296;2023-01-13T13:01:45;23.00;;;2.95;;
49440;SDS011;35317;51.978;6.296;2023-01-13T13:06:52;25.20;;;4.05;;
49440;SDS011;35317;51.978;6.296;2023-01-13T13:23:01;27.88;;;2.92;;
49440;SDS011;35317;51.978;6.296;2023-01-13T13:34:19;22.30;;;3.15;;
49440;SDS011;35317;51.978;6.296;2023-01-13T13:39:40;19.40;;;4.07;;
49440;SDS011;35317;51.978;6.296;2023-01-13T13:45:00;26.05;;;4.05;;
49440;SDS011;35317;51.978;6.296;2023-01-13T13:50:21;25.70;;;4.22;;
49440;SDS011;35317;51.978;6.296;2023-01-13T13:55:26;30.30;;;4.90;;
49440;SDS011;35317;51.978;6.296;2023-01-13T14:00:32;26.38;;;3.45;;
49440;SDS011;35317;51.978;6.296;2023-01-13T14:05:35;21.02;;;3.28;;
49440;SDS011;35317;51.978;6.296;2023-01-13T14:10:37;23.63;;;4.07;;
49440;SDS011;35317;51.978;6.296;2023-01-13T14:15:39;20.10;;;2.97;;
49440;SDS011;35317;51.978;6.296;2023-01-13T14:20:41;21.23;;;3.42;;
49440;SDS011;35317;51.978;6.296;2023-01-13T14:25:46;22.08;;;3.17;;
49440;SDS011;35317;51.978;6.296;2023-01-13T14:30:50;21.65;;;3.60;;
49440;SDS011;35317;51.978;6.296;2023-01-13T14:36:04;24.35;;;3.67;;
49440;SDS011;35317;51.978;6.296;2023-01-13T14:41:24;24.75;;;3.50;;
49440;SDS011;35317;51.978;6.296;2023-01-13T14:46:39;19.50;;;4.15;;
49440;SDS011;35317;51.978;6.296;2023-01-13T14:51:42;19.05;;;3.42;;
49440;SDS011;35317;51.978;6.296;2023-01-13T14:56:48;26.77;;;3.80;;
49440;SDS011;35317;51.978;6.296;2023-01-13T15:01:52;29.45;;;4.50;;
49440;SDS011;35317;51.978;6.296;2023-01-13T15:06:54;19.33;;;2.83;;
49440;SDS011;35317;51.978;6.296;2023-01-13T15:11:56;23.75;;;3.03;;
49440;SDS011;35317;51.978;6.296;2023-01-13T15:16:57;24.00;;;3.10;;
49440;SDS011;35317;51.978;6.296;2023-01-13T15:21:58;17.73;;;3.30;;
49440;SDS011;35317;51.978;6.296;2023-01-13T15:26:59;19.83;;;3.00;;
49440;SDS011;35317;51.978;6.296;2023-01-13T15:32:01;18.33;;;3.72;;
49440;SDS011;35317;51.978;6.296;2023-01-13T15:37:02;18.20;;;2.47;;
49440;SDS011;35317;51.978;6.296;2023-01-13T15:42:03;22.52;;;4.70;;
49440;SDS011;35317;51.978;6.296;2023-01-13T15:47:22;19.48;;;3.30;;
49440;SDS011;35317;51.978;6.296;2023-01-13T15:52:26;23.33;;;3.80;;
49440;SDS011;35317;51.978;6.296;2023-01-13T15:57:28;18.90;;;3.05;;
49440;SDS011;35317;51.978;6.296;2023-01-13T16:02:32;22.13;;;3.97;;
49440;SDS011;35317;51.978;6.296;2023-01-13T16:07:33;18.67;;;3.00;;
49440;SDS011;35317;51.978;6.296;2023-01-13T16:12:34;19.42;;;3.05;;
49440;SDS011;35317;51.978;6.296;2023-01-13T16:17:36;17.60;;;3.80;;
49440;SDS011;35317;51.978;6.296;2023-01-13T16:22:37;17.15;;;3.13;;
49440;SDS011;35317;51.978;6.296;2023-01-13T16:27:38;19.83;;;2.90;;
49440;SDS011;35317;51.978;6.296;2023-01-13T16:32:38;15.48;;;2.45;;
49440;SDS011;35317;51.978;6.296;2023-01-13T16:37:39;15.35;;;2.47;;
49440;SDS011;35317;51.978;6.296;2023-01-13T16:42:40;21.48;;;3.08;;
49440;SDS011;35317;51.978;6.296;2023-01-13T16:47:41;24.33;;;3.53;;
49440;SDS011;35317;51.978;6.296;2023-01-13T16:52:43;17.92;;;3.05;;
49440;SDS011;35317;51.978;6.296;2023-01-13T16:57:44;23.15;;;3.85;;
49440;SDS011;35317;51.978;6.296;2023-01-13T17:02:44;19.55;;;3.03;;
49440;SDS011;35317;51.978;6.296;2023-01-13T17:07:46;22.92;;;3.13;;
49440;SDS011;35317;51.978;6.296;2023-01-13T17:12:47;18.10;;;2.95;;
49440;SDS011;35317;51.978;6.296;2023-01-13T17:17:48;15.88;;;3.28;;
49440;SDS011;35317;51.978;6.296;2023-01-13T17:22:51;19.05;;;2.55;;
49440;SDS011;35317;51.978;6.296;2023-01-13T17:27:51;18.08;;;3.17;;
49440;SDS011;35317;51.978;6.296;2023-01-13T17:32:52;18.25;;;2.92;;
49440;SDS011;35317;51.978;6.296;2023-01-13T17:37:53;16.15;;;2.90;;
49440;SDS011;35317;51.978;6.296;2023-01-13T17:42:54;18.65;;;2.78;;
49440;SDS011;35317;51.978;6.296;2023-01-13T17:47:56;18.10;;;2.33;;
49440;SDS011;35317;51.978;6.296;2023-01-13T17:52:57;20.33;;;3.35;;
49440;SDS011;35317;51.978;6.296;2023-01-13T17:57:57;14.27;;;2.50;;
49440;SDS011;35317;51.978;6.296;2023-01-13T18:02:58;18.30;;;3.05;;
49440;SDS011;35317;51.978;6.296;2023-01-13T18:07:59;25.23;;;3.08;;
49440;SDS011;35317;51.978;6.296;2023-01-13T18:13:00;17.67;;;2.65;;
49440;SDS011;35317;51.978;6.296;2023-01-13T18:18:02;11.13;;;1.92;;
49440;SDS011;35317;51.978;6.296;2023-01-13T18:23:03;7.18;;;1.00;;
49440;SDS011;35317;51.978;6.296;2023-01-13T18:28:22;3.63;;;0.70;;
49440;SDS011;35317;51.978;6.296;2023-01-13T18:33:23;7.47;;;1.60;;
49440;SDS011;35317;51.978;6.296;2023-01-13T18:38:24;7.05;;;1.98;;
49440;SDS011;35317;51.978;6.296;2023-01-13T18:43:25;5.45;;;1.15;;
49440;SDS011;35317;51.978;6.296;2023-01-13T18:48:26;3.15;;;1.10;;
49440;SDS011;35317;51.978;6.296;2023-01-13T18:53:27;5.43;;;1.60;;
49440;SDS011;35317;51.978;6.296;2023-01-13T18:58:28;6.65;;;2.20;;
49440;SDS011;35317;51.978;6.296;2023-01-13T19:03:31;8.73;;;2.10;;
49440;SDS011;35317;51.978;6.296;2023-01-13T19:08:32;9.75;;;3.00;;
49440;SDS011;35317;51.978;6.296;2023-01-13T19:13:33;13.20;;;2.72;;
49440;SDS011;35317;51.978;6.296;2023-01-13T19:18:34;15.60;;;3.13;;
49440;SDS011;35317;51.978;6.296;2023-01-13T19:23:35;20.40;;;3.45;;
49440;SDS011;35317;51.978;6.296;2023-01-13T19:28:36;12.55;;;2.40;;
49440;SDS011;35317;51.978;6.296;2023-01-13T19:33:41;24.13;;;2.83;;
49440;SDS011;35317;51.978;6.296;2023-01-13T19:38:42;11.20;;;3.35;;
49440;SDS011;35317;51.978;6.296;2023-01-13T19:43:43;9.95;;;1.90;;
49440;SDS011;35317;51.978;6.296;2023-01-13T19:49:02;6.15;;;1.10;;
49440;SDS011;35317;51.978;6.296;2023-01-13T19:54:03;2.38;;;1.05;;
49440;SDS011;35317;51.978;6.296;2023-01-13T19:59:04;4.97;;;1.08;;
49440;SDS011;35317;51.978;6.296;2023-01-13T20:04:06;9.35;;;1.23;;
49440;SDS011;35317;51.978;6.296;2023-01-13T20:09:13;6.72;;;1.30;;
49440;SDS011;35317;51.978;6.296;2023-01-13T20:14:13;6.85;;;1.10;;
49440;SDS011;35317;51.978;6.296;2023-01-13T20:19:15;5.65;;;1.55;;
49440;SDS011;35317;51.978;6.296;2023-01-13T20:24:16;5.80;;;1.52;;
49440;SDS011;35317;51.978;6.296;2023-01-13T20:29:17;7.05;;;1.60;;
49440;SDS011;35317;51.978;6.296;2023-01-13T20:34:17;7.13;;;1.40;;
49440;SDS011;35317;51.978;6.296;2023-01-13T20:39:23;9.82;;;1.63;;
49440;SDS011;35317;51.978;6.296;2023-01-13T20:44:25;10.45;;;2.40;;
49440;SDS011;35317;51.978;6.296;2023-01-13T20:49:27;15.52;;;2.25;;
49440;SDS011;35317;51.978;6.296;2023-01-13T20:54:29;18.15;;;2.92;;
49440;SDS011;35317;51.978;6.296;2023-01-13T20:59:30;14.35;;;2.42;;
49440;SDS011;35317;51.978;6.296;2023-01-13T21:04:30;17.92;;;2.95;;
49440;SDS011;35317;51.978;6.296;2023-01-13T21:09:31;15.00;;;2.58;;
49440;SDS011;35317;51.978;6.296;2023-01-13T21:14:32;18.23;;;3.40;;
49440;SDS011;35317;51.978;6.296;2023-01-13T21:19:52;15.32;;;4.00;;
49440;SDS011;35317;51.978;6.296;2023-01-13T21:24:53;4.20;;;1.58;;
49440;SDS011;35317;51.978;6.296;2023-01-13T21:29:57;5.05;;;1.35;;
49440;SDS011;35317;51.978;6.296;2023-01-13T21:34:58;7.97;;;1.70;;
49440;SDS011;35317;51.978;6.296;2023-01-13T21:39:58;6.63;;;1.73;;
49440;SDS011;35317;51.978;6.296;2023-01-13T21:44:59;9.55;;;1.85;;
49440;SDS011;35317;51.978;6.296;2023-01-13T21:50:23;8.45;;;2.22;;
49440;SDS011;35317;51.978;6.296;2023-01-13T21:55:27;12.15;;;2.60;;
49440;SDS011;35317;51.978;6.296;2023-01-13T22:00:29;15.38;;;2.88;;
49440;SDS011;35317;51.978;6.296;2023-01-13T22:05:31;9.13;;;1.57;;
49440;SDS011;35317;51.978;6.296;2023-01-13T22:10:33;17.67;;;3.10;;
49440;SDS011;35317;51.978;6.296;2023-01-13T22:15:34;18.25;;;3.65;;
49440;SDS011;35317;51.978;6.296;2023-01-13T22:20:35;16.55;;;3.97;;
49440;SDS011;35317;51.978;6.296;2023-01-13T22:25:35;23.48;;;5.13;;
49440;SDS011;35317;51.978;6.296;2023-01-13T22:30:37;21.70;;;4.55;;
49440;SDS011;35317;51.978;6.296;2023-01-13T22:35:38;20.67;;;4.55;;
49440;SDS011;35317;51.978;6.296;2023-01-13T22:40:39;20.83;;;4.38;;
49440;SDS011;35317;51.978;6.296;2023-01-13T22:45:39;24.08;;;3.30;;
49440;SDS011;35317;51.978;6.296;2023-01-13T22:50:40;22.73;;;4.07;;
49440;SDS011;35317;51.978;6.296;2023-01-13T22:55:41;23.70;;;3.47;;
49440;SDS011;35317;51.978;6.296;2023-01-13T23:00:41;22.02;;;3.90;;
49440;SDS011;35317;51.978;6.296;2023-01-13T23:05:43;33.65;;;5.50;;
49440;SDS011;35317;51.978;6.296;2023-01-13T23:11:01;24.98;;;3.88;;
49440;SDS011;35317;51.978;6.296;2023-01-13T23:16:25;29.52;;;3.38;;
49440;SDS011;35317;51.978;6.296;2023-01-13T23:21:30;32.33;;;4.60;;
49440;SDS011;35317;51.978;6.296;2023-01-13T23:26:55;27.92;;;3.30;;
49440;SDS011;35317;51.978;6.296;2023-01-13T23:31:55;25.67;;;4.10;;
49440;SDS011;35317;51.978;6.296;2023-01-13T23:36:56;27.05;;;3.75;;
49440;SDS011;35317;51.978;6.296;2023-01-13T23:41:57;31.83;;;5.63;;
49440;SDS011;35317;51.978;6.296;2023-01-13T23:46:58;24.15;;;3.50;;
49440;SDS011;35317;51.978;6.296;2023-01-13T23:51:59;21.40;;;3.08;;
49440;SDS011;35317;51.978;6.296;2023-01-13T23:56:59;15.95;;;2.85;;
